createdAt,value
2019-04-30T00:01:31.804Z,13.43
2019-04-30T00:04:07.503Z,13.40
2019-04-30T00:06:39.643Z,13.47
2019-04-30T00:09:15.107Z,13.46
2019-04-30T00:11:50.700Z,13.46
2019-04-30T00:14:20.385Z,13.50
2019-04-30T00:16:52.065Z,13.47
2019-04-30T00:19:23.525Z,13.40
2019-04-30T00:22:00.072Z,13.48
2019-04-30T00:24:27.523Z,13.51
2019-04-30T00:26:59.259Z,13.47
2019-04-30T00:29:31.175Z,13.40
2019-04-30T00:32:04.600Z,13.39
2019-04-30T00:34:39.360Z,13.55
2019-04-30T00:37:13.968Z,13.49
2019-04-30T00:39:51.174Z,13.45
2019-04-30T00:42:24.145Z,13.48
2019-04-30T00:44:59.754Z,13.51
2019-04-30T00:47:32.435Z,13.42
2019-04-30T00:50:04.976Z,13.37
2019-04-30T00:52:37.459Z,13.40
2019-04-30T00:55:09.607Z,13.47
2019-04-30T00:57:43.565Z,13.44
2019-04-30T01:00:17.782Z,13.50
2019-04-30T01:03:09.321Z,13.49
2019-04-30T01:05:46.501Z,13.57
2019-04-30T01:08:15.415Z,13.56
2019-04-30T01:10:46.681Z,13.62
2019-04-30T01:13:19.181Z,13.59
2019-04-30T01:15:52.502Z,13.62
2019-04-30T01:18:28.539Z,13.61
2019-04-30T01:20:58.794Z,13.64
2019-04-30T01:23:30.438Z,13.53
2019-04-30T01:26:02.429Z,13.44
2019-04-30T01:28:34.181Z,13.43
2019-04-30T01:31:05.733Z,13.43
2019-04-30T01:33:39.034Z,13.38
2019-04-30T01:36:13.353Z,13.36
2019-04-30T01:38:48.192Z,13.30
2019-04-30T01:41:21.999Z,13.23
2019-04-30T01:43:51.657Z,13.25
2019-04-30T01:46:23.173Z,13.26
2019-04-30T01:48:54.787Z,13.13
2019-04-30T01:51:28.257Z,13.06
2019-04-30T01:54:00.491Z,13.12
2019-04-30T01:57:06.561Z,13.14
2019-04-30T01:59:55.613Z,13.17
2019-04-30T02:02:29.121Z,13.12
2019-04-30T02:05:00.883Z,13.06
2019-04-30T02:07:32.661Z,13.14
2019-04-30T02:10:04.566Z,13.17
2019-04-30T02:12:36.165Z,13.14
2019-04-30T02:15:09.465Z,13.12
2019-04-30T02:17:41.371Z,12.90
2019-04-30T02:20:13.281Z,12.85
2019-04-30T02:22:44.859Z,12.87
2019-04-30T02:25:16.737Z,12.76
2019-04-30T02:27:48.910Z,12.71
2019-04-30T02:30:21.148Z,12.80
2019-04-30T02:32:52.925Z,12.84
2019-04-30T02:35:46.359Z,12.95
2019-04-30T02:38:21.942Z,12.98
2019-04-30T02:40:54.817Z,12.88
2019-04-30T02:43:30.034Z,12.86
2019-04-30T02:46:04.763Z,12.86
2019-04-30T02:48:39.939Z,12.82
2019-04-30T02:51:14.115Z,12.78
2019-04-30T02:54:24.922Z,12.85
2019-04-30T02:57:29.933Z,12.89
2019-04-30T03:00:10.517Z,12.88
2019-04-30T03:02:42.050Z,12.82
2019-04-30T03:05:14.144Z,12.70
2019-04-30T03:07:45.765Z,12.81
2019-04-30T03:10:19.835Z,12.90
2019-04-30T03:12:51.132Z,12.88
2019-04-30T03:15:23.146Z,12.82
2019-04-30T03:18:10.885Z,12.78
2019-04-30T03:20:50.558Z,12.82
2019-04-30T03:23:22.544Z,12.73
2019-04-30T03:25:54.287Z,12.73
2019-04-30T03:28:26.263Z,12.70
2019-04-30T03:31:03.453Z,12.55
2019-04-30T03:33:32.732Z,12.38
2019-04-30T03:36:03.477Z,12.34
2019-04-30T03:38:35.310Z,12.33
2019-04-30T03:41:09.632Z,12.25
2019-04-30T03:43:40.484Z,12.26
2019-04-30T03:46:12.873Z,12.14
2019-04-30T03:48:44.460Z,12.11
2019-04-30T03:51:16.203Z,12.06
2019-04-30T03:53:50.118Z,12.00
2019-04-30T03:56:22.762Z,12.03
2019-04-30T03:58:53.269Z,12.10
2019-04-30T04:01:34.290Z,12.08
2019-04-30T04:04:20.195Z,12.08
2019-04-30T04:07:15.206Z,12.06
2019-04-30T04:09:51.628Z,12.07
2019-04-30T04:12:24.057Z,12.05
2019-04-30T04:14:55.971Z,12.06
2019-04-30T04:17:31.124Z,12.08
2019-04-30T04:20:01.991Z,12.13
2019-04-30T04:22:35.023Z,12.29
2019-04-30T04:25:12.682Z,12.34
2019-04-30T04:27:40.689Z,12.34
2019-04-30T04:30:12.293Z,12.27
2019-04-30T04:32:44.346Z,12.33
2019-04-30T04:35:16.526Z,12.39
2019-04-30T04:37:49.438Z,12.52
2019-04-30T04:40:21.530Z,12.58
2019-04-30T04:42:53.228Z,12.68
2019-04-30T04:45:24.887Z,12.75
2019-04-30T04:47:56.644Z,12.81
2019-04-30T04:50:30.316Z,12.88
2019-04-30T04:53:01.567Z,13.01
2019-04-30T04:55:33.128Z,13.19
2019-04-30T04:58:04.514Z,13.37
2019-04-30T05:00:36.226Z,13.31
2019-04-30T05:03:14.009Z,13.36
2019-04-30T05:05:45.679Z,13.42
2019-04-30T05:08:18.575Z,13.23
2019-04-30T05:10:50.327Z,13.27
2019-04-30T05:13:21.915Z,13.24
2019-04-30T05:15:53.819Z,13.34
2019-04-30T05:18:25.258Z,13.58
2019-04-30T05:20:56.781Z,13.70
2019-04-30T05:23:29.829Z,13.92
2019-04-30T05:26:02.032Z,14.09
2019-04-30T05:28:33.577Z,14.12
2019-04-30T05:31:05.008Z,14.21
2019-04-30T05:33:36.633Z,14.24
2019-04-30T05:36:09.313Z,14.21
2019-04-30T05:38:40.992Z,14.26
2019-04-30T05:41:12.551Z,14.32
2019-04-30T05:43:44.047Z,14.42
2019-04-30T05:46:34.306Z,14.31
2019-04-30T05:49:05.977Z,14.35
2019-04-30T05:51:38.812Z,14.27
2019-04-30T05:54:12.914Z,14.27
2019-04-30T05:56:44.486Z,14.30
2019-04-30T05:59:16.503Z,14.55
2019-04-30T06:01:50.712Z,14.66
2019-04-30T06:04:21.959Z,14.72
2019-04-30T06:06:53.767Z,14.95
2019-04-30T06:09:38.655Z,15.00
2019-04-30T06:12:29.224Z,14.92
2019-04-30T06:15:22.897Z,15.08
2019-04-30T06:18:00.221Z,15.31
2019-04-30T06:20:28.671Z,15.27
2019-04-30T06:23:01.548Z,15.28
2019-04-30T06:25:45.730Z,15.37
2019-04-30T06:28:06.668Z,15.08
2019-04-30T06:30:39.654Z,15.33
2019-04-30T06:33:12.611Z,15.38
2019-04-30T06:35:44.388Z,15.21
2019-04-30T06:38:16.275Z,15.42
2019-04-30T06:40:48.898Z,15.54
2019-04-30T06:43:22.741Z,15.47
2019-04-30T06:45:54.533Z,15.62
2019-04-30T06:48:26.720Z,15.44
2019-04-30T06:51:00.811Z,15.67
2019-04-30T06:53:32.502Z,15.81
2019-04-30T06:56:04.308Z,15.71
2019-04-30T06:58:36.231Z,15.97
2019-04-30T07:01:09.413Z,16.09
2019-04-30T07:03:42.454Z,16.20
2019-04-30T07:06:26.913Z,16.35
2019-04-30T07:09:13.334Z,16.36
2019-04-30T07:12:02.948Z,16.62
2019-04-30T07:14:34.920Z,17.13
2019-04-30T07:17:06.532Z,17.64
2019-04-30T07:19:53.301Z,17.85
2019-04-30T07:22:11.753Z,18.02
2019-04-30T07:24:43.652Z,17.92
2019-04-30T07:27:23.988Z,17.52
2019-04-30T07:29:52.641Z,17.63
2019-04-30T07:32:24.168Z,17.58
2019-04-30T07:34:55.914Z,17.34
2019-04-30T07:37:29.211Z,17.24
2019-04-30T07:40:00.814Z,17.20
2019-04-30T07:42:37.011Z,17.12
2019-04-30T07:45:06.882Z,16.68
2019-04-30T07:47:39.501Z,16.51
2019-04-30T07:50:12.170Z,16.30
2019-04-30T07:52:58.895Z,16.10
2019-04-30T07:55:19.623Z,16.02
2019-04-30T07:57:51.519Z,15.97
2019-04-30T08:00:23.291Z,15.72
2019-04-30T08:03:14.101Z,15.44
2019-04-30T08:05:46.600Z,15.45
2019-04-30T08:08:24.552Z,15.48
2019-04-30T08:10:51.423Z,15.36
2019-04-30T08:13:23.524Z,15.48
2019-04-30T08:15:55.417Z,15.61
2019-04-30T08:18:29.408Z,15.59
2019-04-30T08:21:01.091Z,15.60
2019-04-30T08:23:36.830Z,15.58
2019-04-30T08:26:08.692Z,15.42
2019-04-30T08:28:40.436Z,15.13
2019-04-30T08:31:12.096Z,14.98
2019-04-30T08:33:43.619Z,15.22
2019-04-30T08:36:15.591Z,15.67
2019-04-30T08:38:49.378Z,15.85
2019-04-30T08:41:21.071Z,16.01
2019-04-30T08:43:52.758Z,15.62
2019-04-30T08:46:24.281Z,15.60
2019-04-30T08:48:55.855Z,15.10
2019-04-30T08:51:30.499Z,14.90
2019-04-30T08:54:01.591Z,14.71
2019-04-30T08:56:33.599Z,14.67
2019-04-30T08:59:05.373Z,14.47
2019-04-30T09:01:38.686Z,14.62
2019-04-30T09:04:10.537Z,14.84
2019-04-30T09:06:42.517Z,14.65
2019-04-30T09:09:21.942Z,14.32
2019-04-30T09:11:55.775Z,13.81
2019-04-30T09:14:26.284Z,13.51
2019-04-30T09:16:59.575Z,12.92
2019-04-30T09:19:31.356Z,12.72
2019-04-30T09:22:03.073Z,12.30
2019-04-30T09:24:35.033Z,11.98
2019-04-30T09:27:06.597Z,11.81
2019-04-30T09:29:39.144Z,11.83
2019-04-30T09:32:13.781Z,11.90
2019-04-30T09:34:45.737Z,11.95
2019-04-30T09:37:18.707Z,12.34
2019-04-30T09:39:49.670Z,12.68
2019-04-30T09:42:21.344Z,13.22
2019-04-30T09:44:54.913Z,13.37
2019-04-30T09:47:26.955Z,13.64
2019-04-30T09:49:59.676Z,14.27
2019-04-30T09:52:31.801Z,14.89
2019-04-30T09:55:04.100Z,15.47
2019-04-30T09:57:35.708Z,15.89
2019-04-30T10:00:09.410Z,16.27
2019-04-30T10:02:42.906Z,16.79
2019-04-30T10:05:18.110Z,17.27
2019-04-30T10:07:50.013Z,17.37
2019-04-30T10:10:28.809Z,17.65
2019-04-30T10:13:03.155Z,18.05
2019-04-30T10:15:45.738Z,18.31
2019-04-30T10:18:17.523Z,18.49
2019-04-30T10:20:49.408Z,18.42
2019-04-30T10:23:20.887Z,17.96
2019-04-30T10:25:52.744Z,17.74
2019-04-30T10:28:24.984Z,17.71
2019-04-30T10:30:56.587Z,17.58
2019-04-30T10:33:28.755Z,17.04
2019-04-30T10:36:00.859Z,16.97
2019-04-30T10:38:32.741Z,16.67
2019-04-30T10:41:04.485Z,16.74
2019-04-30T10:43:35.934Z,16.76
2019-04-30T10:46:09.708Z,17.40
2019-04-30T10:48:43.421Z,17.82
2019-04-30T10:51:15.505Z,18.38
2019-04-30T10:53:48.616Z,18.76
2019-04-30T10:56:20.991Z,19.15
2019-04-30T10:58:52.821Z,19.61
2019-04-30T11:01:24.538Z,19.75
2019-04-30T11:03:56.335Z,20.03
2019-04-30T11:06:29.017Z,19.77
2019-04-30T11:09:00.786Z,19.70
2019-04-30T11:11:34.190Z,20.18
2019-04-30T11:14:05.774Z,20.52
2019-04-30T11:16:37.457Z,20.67
2019-04-30T11:19:09.591Z,20.38
2019-04-30T11:21:41.771Z,20.09
2019-04-30T11:24:13.682Z,19.78
2019-04-30T11:26:46.383Z,19.85
2019-04-30T11:29:17.576Z,20.33
2019-04-30T11:31:57.033Z,20.66
2019-04-30T11:34:28.677Z,20.69
2019-04-30T11:37:00.154Z,20.82
2019-04-30T11:39:32.063Z,20.79
2019-04-30T11:42:03.718Z,20.97
2019-04-30T11:44:35.396Z,20.96
2019-04-30T11:47:37.267Z,20.66
2019-04-30T11:50:12.333Z,20.97
2019-04-30T11:52:44.444Z,21.15
2019-04-30T11:55:16.728Z,20.76
2019-04-30T11:57:49.503Z,20.40
2019-04-30T12:00:29.555Z,20.45
2019-04-30T12:03:00.978Z,20.45
2019-04-30T12:05:32.944Z,19.89
2019-04-30T12:08:14.818Z,20.09
2019-04-30T12:10:55.963Z,19.83
2019-04-30T12:13:34.594Z,19.30
2019-04-30T12:16:08.577Z,18.98
2019-04-30T12:18:40.471Z,18.43
2019-04-30T12:21:12.047Z,18.38
2019-04-30T12:23:43.881Z,18.27
2019-04-30T12:26:15.560Z,18.18
2019-04-30T12:28:47.229Z,17.85
2019-04-30T12:31:19.162Z,17.67
2019-04-30T12:33:50.817Z,17.58
2019-04-30T12:36:23.745Z,17.63
2019-04-30T12:39:04.930Z,17.49
2019-04-30T12:41:38.975Z,17.55
2019-04-30T12:44:10.263Z,17.52
2019-04-30T12:46:42.020Z,17.67
2019-04-30T12:49:14.216Z,17.71
2019-04-30T12:51:50.664Z,17.73
2019-04-30T12:54:34.575Z,17.82
2019-04-30T12:57:11.182Z,17.83
2019-04-30T12:59:43.470Z,17.77
2019-04-30T13:02:15.390Z,17.79
2019-04-30T13:04:49.280Z,17.74
2019-04-30T13:07:21.523Z,17.75
2019-04-30T13:09:54.128Z,17.41
2019-04-30T13:12:26.520Z,17.48
2019-04-30T13:14:58.621Z,17.49
2019-04-30T13:17:30.271Z,17.40
2019-04-30T13:20:01.773Z,17.51
2019-04-30T13:22:34.841Z,17.42
2019-04-30T13:25:06.743Z,17.19
2019-04-30T13:27:41.625Z,17.21
2019-04-30T13:30:24.060Z,17.31
2019-04-30T13:33:20.920Z,17.27
2019-04-30T13:35:52.835Z,17.14
2019-04-30T13:38:29.859Z,17.27
2019-04-30T13:41:08.892Z,17.21
2019-04-30T13:44:00.944Z,16.56
2019-04-30T13:46:32.482Z,16.52
2019-04-30T13:49:04.189Z,16.69
2019-04-30T13:51:36.051Z,16.46
2019-04-30T13:54:07.742Z,16.40
2019-04-30T13:56:39.837Z,16.70
2019-04-30T13:59:12.039Z,18.35
2019-04-30T14:01:43.939Z,19.15
2019-04-30T14:04:33.559Z,18.56
2019-04-30T14:07:15.846Z,19.07
2019-04-30T14:09:47.656Z,19.44
2019-04-30T14:12:19.172Z,18.90
2019-04-30T14:14:50.858Z,18.35
2019-04-30T14:17:22.841Z,17.95
2019-04-30T14:19:54.545Z,17.71
2019-04-30T14:22:26.613Z,17.51
2019-04-30T14:24:58.324Z,17.25
2019-04-30T14:27:30.204Z,17.18
2019-04-30T14:30:01.856Z,16.99
2019-04-30T14:32:33.866Z,16.87
2019-04-30T14:35:09.093Z,16.82
2019-04-30T14:37:40.709Z,16.49
2019-04-30T14:40:13.705Z,16.25
2019-04-30T14:43:12.753Z,16.15
2019-04-30T14:46:03.362Z,16.05
2019-04-30T14:48:41.610Z,16.49
2019-04-30T14:51:13.512Z,17.10
2019-04-30T14:53:58.782Z,18.00
2019-04-30T14:56:55.482Z,17.53
2019-04-30T14:59:55.504Z,17.24
2019-04-30T15:02:31.582Z,16.92
2019-04-30T15:05:03.622Z,16.59
2019-04-30T15:07:35.527Z,16.52
2019-04-30T15:10:07.827Z,16.55
2019-04-30T15:12:39.733Z,16.17
2019-04-30T15:15:11.894Z,16.16
2019-04-30T15:17:43.917Z,16.20
2019-04-30T15:20:15.907Z,16.08
2019-04-30T15:23:19.362Z,16.02
2019-04-30T15:25:51.758Z,15.99
2019-04-30T15:28:23.491Z,15.90
2019-04-30T15:30:55.505Z,15.82
2019-04-30T15:34:03.050Z,15.85
2019-04-30T15:36:34.844Z,15.86
2019-04-30T15:39:45.539Z,15.76
2019-04-30T15:42:19.742Z,15.68
2019-04-30T15:44:51.483Z,15.50
2019-04-30T15:47:23.465Z,15.33
2019-04-30T15:49:55.192Z,15.23
2019-04-30T15:52:28.767Z,15.15
2019-04-30T15:54:59.304Z,14.97
2019-04-30T15:57:31.072Z,14.85
2019-04-30T16:00:02.932Z,14.83
2019-04-30T16:02:56.198Z,14.81
2019-04-30T16:05:40.809Z,14.84
2019-04-30T16:08:35.325Z,14.86
2019-04-30T16:11:25.901Z,14.77
2019-04-30T16:14:14.561Z,14.80
2019-04-30T16:16:52.040Z,14.65
2019-04-30T16:19:23.863Z,14.63
2019-04-30T16:21:55.614Z,14.30
2019-04-30T16:24:28.754Z,14.49
2019-04-30T16:27:00.629Z,14.53
2019-04-30T16:29:32.588Z,14.57
2019-04-30T16:32:04.307Z,14.55
2019-04-30T16:34:35.997Z,14.56
2019-04-30T16:37:07.642Z,14.50
2019-04-30T16:39:39.798Z,14.55
2019-04-30T16:42:12.558Z,14.35
2019-04-30T16:44:44.280Z,14.47
2019-04-30T16:47:17.054Z,14.42
2019-04-30T16:49:49.390Z,14.39
2019-04-30T16:52:20.959Z,14.53
2019-04-30T16:54:52.826Z,14.25
2019-04-30T16:57:24.417Z,14.28
2019-04-30T16:59:56.022Z,14.45
2019-04-30T17:02:29.848Z,14.41
2019-04-30T17:05:24.561Z,14.36
2019-04-30T17:08:06.837Z,14.17
2019-04-30T17:11:03.270Z,14.07
2019-04-30T17:13:40.240Z,14.11
2019-04-30T17:16:15.293Z,14.05
2019-04-30T17:18:49.254Z,13.93
2019-04-30T17:21:20.464Z,13.96
2019-04-30T17:23:52.461Z,13.91
2019-04-30T17:26:24.209Z,13.73
2019-04-30T17:28:55.943Z,13.60
2019-04-30T17:31:27.638Z,13.53
2019-04-30T17:33:59.231Z,13.48
2019-04-30T17:36:31.119Z,13.23
2019-04-30T17:39:03.180Z,13.05
2019-04-30T17:41:36.187Z,12.65
2019-04-30T17:44:08.852Z,12.65
2019-04-30T17:46:40.685Z,12.47
2019-04-30T17:49:13.055Z,12.21
2019-04-30T17:51:44.824Z,12.08
2019-04-30T17:54:16.811Z,11.93
2019-04-30T17:56:48.619Z,11.90
2019-04-30T17:59:20.506Z,11.61
2019-04-30T18:01:59.476Z,11.49
2019-04-30T18:04:31.067Z,11.39
2019-04-30T18:07:02.990Z,11.23
2019-04-30T18:09:34.893Z,11.08
2019-04-30T18:12:06.654Z,11.08
2019-04-30T18:14:39.584Z,10.97
2019-04-30T18:17:11.348Z,10.90
2019-04-30T18:20:01.821Z,10.94
2019-04-30T18:22:48.901Z,10.78
2019-04-30T18:25:34.408Z,10.74
2019-04-30T18:28:06.270Z,10.58
2019-04-30T18:30:39.292Z,10.54
2019-04-30T18:33:10.149Z,10.44
2019-04-30T18:35:42.432Z,10.34
2019-04-30T18:38:13.987Z,10.24
2019-04-30T18:40:45.723Z,10.33
2019-04-30T18:43:20.401Z,10.43
2019-04-30T18:45:51.482Z,10.41
2019-04-30T18:48:23.341Z,10.44
2019-04-30T18:50:55.254Z,10.54
2019-04-30T18:53:28.698Z,10.63
2019-04-30T18:56:01.458Z,10.61
2019-04-30T18:58:40.010Z,10.51
2019-04-30T19:01:09.252Z,10.47
2019-04-30T19:03:41.164Z,10.47
2019-04-30T19:06:23.695Z,10.29
2019-04-30T19:09:00.487Z,10.19
2019-04-30T19:11:42.705Z,10.07
2019-04-30T19:14:30.500Z,10.04
2019-04-30T19:17:26.969Z,10.00
2019-04-30T19:20:29.872Z,10.00
2019-04-30T19:23:01.622Z,10.02
2019-04-30T19:25:33.672Z,10.00
2019-04-30T19:28:14.012Z,9.98
2019-04-30T19:30:39.580Z,9.95
2019-04-30T19:33:11.298Z,10.05
2019-04-30T19:35:42.885Z,9.98
2019-04-30T19:38:15.051Z,10.01
2019-04-30T19:40:49.259Z,10.03
2019-04-30T19:43:20.656Z,10.03
2019-04-30T19:45:52.425Z,10.01
2019-04-30T19:48:24.083Z,9.88
2019-04-30T19:50:55.905Z,9.80
2019-04-30T19:53:27.659Z,9.91
2019-04-30T19:55:59.421Z,9.82
2019-04-30T19:58:48.127Z,9.65
2019-04-30T20:01:04.646Z,9.74
2019-04-30T20:03:36.263Z,9.64
2019-04-30T20:06:09.043Z,9.62
2019-04-30T20:08:41.796Z,9.57
2019-04-30T20:11:13.178Z,9.67
2019-04-30T20:13:44.922Z,9.58
2019-04-30T20:16:16.784Z,9.63
2019-04-30T20:18:49.111Z,9.64
2019-04-30T20:21:28.021Z,9.74
2019-04-30T20:23:55.994Z,9.72
2019-04-30T20:26:28.888Z,9.88
2019-04-30T20:29:00.673Z,9.88
2019-04-30T20:31:32.224Z,9.82
2019-04-30T20:34:04.313Z,9.75
2019-04-30T20:36:36.128Z,9.82
2019-04-30T20:39:33.794Z,9.83
2019-04-30T20:42:05.741Z,9.81
2019-04-30T20:44:38.986Z,9.61
2019-04-30T20:47:10.809Z,9.46
2019-04-30T20:49:42.477Z,9.35
2019-04-30T20:52:14.170Z,9.41
2019-04-30T20:54:48.946Z,9.41
2019-04-30T20:57:20.364Z,9.39
2019-04-30T20:59:52.198Z,9.27
2019-04-30T21:02:23.856Z,9.25
2019-04-30T21:04:55.697Z,9.19
2019-04-30T21:07:27.307Z,9.21
2019-04-30T21:10:00.446Z,9.11
2019-04-30T21:12:32.140Z,9.02
2019-04-30T21:15:05.038Z,9.07
2019-04-30T21:17:36.675Z,9.02
2019-04-30T21:20:09.824Z,9.00
2019-04-30T21:22:41.171Z,9.08
2019-04-30T21:25:14.321Z,8.99
2019-04-30T21:27:46.219Z,8.88
2019-04-30T21:30:18.095Z,8.86
2019-04-30T21:33:00.457Z,8.98
2019-04-30T21:35:34.755Z,8.98
2019-04-30T21:38:06.514Z,8.98
2019-04-30T21:40:39.427Z,9.01
2019-04-30T21:43:10.542Z,9.06
2019-04-30T21:45:42.298Z,9.21
2019-04-30T21:48:14.092Z,9.25
2019-04-30T21:50:46.123Z,9.32
2019-04-30T21:53:19.538Z,9.28
2019-04-30T21:55:51.277Z,9.35
2019-04-30T21:58:23.040Z,9.16
2019-04-30T22:01:20.391Z,9.00
2019-04-30T22:03:53.439Z,8.85
2019-04-30T22:06:25.058Z,8.81
2019-04-30T22:08:58.462Z,8.87
2019-04-30T22:11:30.046Z,8.98
2019-04-30T22:14:01.568Z,8.95
2019-04-30T22:16:34.408Z,8.97
2019-04-30T22:19:05.985Z,8.98
2019-04-30T22:21:39.450Z,8.98
2019-04-30T22:24:09.964Z,8.95
2019-04-30T22:26:41.356Z,8.97
2019-04-30T22:29:12.897Z,8.91
2019-04-30T22:31:44.426Z,8.86
2019-04-30T22:34:16.287Z,8.93
2019-04-30T22:36:49.036Z,8.88
2019-04-30T22:39:31.592Z,8.85
2019-04-30T22:42:30.101Z,8.95
2019-04-30T22:45:02.979Z,9.04
2019-04-30T22:47:34.314Z,9.00
2019-04-30T22:50:08.895Z,9.08
2019-04-30T22:52:40.391Z,9.09
2019-04-30T22:55:12.274Z,8.92
2019-04-30T22:57:44.195Z,8.77
2019-04-30T23:00:22.743Z,8.80
2019-04-30T23:02:58.177Z,8.79
2019-04-30T23:05:29.646Z,8.68
2019-04-30T23:08:01.496Z,8.75
2019-04-30T23:10:33.295Z,8.76
2019-04-30T23:13:04.904Z,8.90
2019-04-30T23:15:36.966Z,9.05
2019-04-30T23:18:20.785Z,9.13
2019-04-30T23:20:52.705Z,9.15
2019-04-30T23:23:24.693Z,9.18
2019-04-30T23:25:56.578Z,9.22
2019-04-30T23:28:28.175Z,9.15
2019-04-30T23:31:00.000Z,9.34
2019-04-30T23:33:31.553Z,9.33
2019-04-30T23:36:03.223Z,9.17
2019-04-30T23:38:34.857Z,9.30
2019-04-30T23:41:06.819Z,9.46
2019-04-30T23:43:38.251Z,9.48
2019-04-30T23:46:09.892Z,9.64
2019-04-30T23:48:41.460Z,9.71
2019-04-30T23:51:13.115Z,9.66
2019-04-30T23:53:44.699Z,9.87
2019-04-30T23:56:16.573Z,10.07
2019-04-30T23:58:48.204Z,10.19
